sensor_id;sensor_type;location;lat;lon;timestamp;pressure;altitude;pressure_sealevel;temperature;humidity
50434;BME280;36361;38.954;-9.002;2023-05-18T00:00:23;100509.94;;;22.25;34.70
50434;BME280;36361;38.954;-9.002;2023-05-18T00:01:24;100511.06;;;22.24;35.13
50434;BME280;36361;38.954;-9.002;2023-05-18T00:02:26;100512.47;;;22.22;33.51
50434;BME280;36361;38.954;-9.002;2023-05-18T00:03:27;100508.22;;;22.29;32.19
50434;BME280;36361;38.954;-9.002;2023-05-18T00:04:33;100508.63;;;21.94;33.06
50434;BME280;36361;38.954;-9.002;2023-05-18T00:05:34;100518.00;;;21.98;33.18
50434;BME280;36361;38.954;-9.002;2023-05-18T00:06:36;100520.38;;;21.85;33.26
50434;BME280;36361;38.954;-9.002;2023-05-18T00:07:37;100514.25;;;21.89;33.11
50434;BME280;36361;38.954;-9.002;2023-05-18T00:08:39;100523.84;;;21.72;33.05
50434;BME280;36361;38.954;-9.002;2023-05-18T00:09:40;100516.06;;;21.45;33.49
50434;BME280;36361;38.954;-9.002;2023-05-18T00:10:47;100511.44;;;21.41;33.65
50434;BME280;36361;38.954;-9.002;2023-05-18T00:11:47;100516.25;;;21.25;33.94
50434;BME280;36361;38.954;-9.002;2023-05-18T00:12:48;100527.03;;;21.32;33.98
50434;BME280;36361;38.954;-9.002;2023-05-18T00:13:49;100521.88;;;21.49;33.65
50434;BME280;36361;38.954;-9.002;2023-05-18T00:14:50;100517.31;;;21.34;33.85
50434;BME280;36361;38.954;-9.002;2023-05-18T00:15:51;100516.41;;;21.39;33.49
50434;BME280;36361;38.954;-9.002;2023-05-18T00:16:53;100522.50;;;21.41;33.41
50434;BME280;36361;38.954;-9.002;2023-05-18T00:17:54;100524.34;;;21.50;33.34
50434;BME280;36361;38.954;-9.002;2023-05-18T00:18:56;100519.03;;;21.54;33.92
50434;BME280;36361;38.954;-9.002;2023-05-18T00:19:57;100514.31;;;21.31;33.49
50434;BME280;36361;38.954;-9.002;2023-05-18T00:21:00;100515.16;;;21.21;34.25
50434;BME280;36361;38.954;-9.002;2023-05-18T00:22:04;100517.66;;;21.22;33.82
50434;BME280;36361;38.954;-9.002;2023-05-18T00:23:07;100518.09;;;21.40;33.56
50434;BME280;36361;38.954;-9.002;2023-05-18T00:24:10;100511.53;;;21.31;33.74
50434;BME280;36361;38.954;-9.002;2023-05-18T00:25:12;100506.41;;;21.09;33.90
50434;BME280;36361;38.954;-9.002;2023-05-18T00:26:12;100515.69;;;20.94;33.98
50434;BME280;36361;38.954;-9.002;2023-05-18T00:27:15;100512.22;;;21.12;36.33
50434;BME280;36361;38.954;-9.002;2023-05-18T00:28:16;100519.88;;;21.20;35.35
50434;BME280;36361;38.954;-9.002;2023-05-18T00:29:29;100507.69;;;21.26;35.06
50434;BME280;36361;38.954;-9.002;2023-05-18T00:30:30;100512.09;;;21.27;34.16
50434;BME280;36361;38.954;-9.002;2023-05-18T00:31:31;100509.34;;;21.22;33.30
50434;BME280;36361;38.954;-9.002;2023-05-18T00:32:36;100510.06;;;21.38;35.60
50434;BME280;36361;38.954;-9.002;2023-05-18T00:33:37;100509.13;;;21.48;35.81
50434;BME280;36361;38.954;-9.002;2023-05-18T00:34:37;100503.13;;;21.41;35.81
50434;BME280;36361;38.954;-9.002;2023-05-18T00:35:39;100507.38;;;21.57;35.94
50434;BME280;36361;38.954;-9.002;2023-05-18T00:36:52;100511.34;;;21.75;36.23
50434;BME280;36361;38.954;-9.002;2023-05-18T00:37:56;100505.78;;;21.75;33.68
50434;BME280;36361;38.954;-9.002;2023-05-18T00:38:58;100504.97;;;21.74;35.35
50434;BME280;36361;38.954;-9.002;2023-05-18T00:39:59;100509.56;;;21.84;35.69
50434;BME280;36361;38.954;-9.002;2023-05-18T00:41:00;100513.41;;;21.88;35.15
50434;BME280;36361;38.954;-9.002;2023-05-18T00:42:01;100515.88;;;21.90;34.86
50434;BME280;36361;38.954;-9.002;2023-05-18T00:43:02;100507.56;;;21.90;33.36
50434;BME280;36361;38.954;-9.002;2023-05-18T00:44:09;100509.22;;;21.91;34.87
50434;BME280;36361;38.954;-9.002;2023-05-18T00:45:11;100515.06;;;21.89;35.13
50434;BME280;36361;38.954;-9.002;2023-05-18T00:46:24;100512.28;;;21.89;35.38
50434;BME280;36361;38.954;-9.002;2023-05-18T00:47:26;100510.88;;;21.92;33.99
50434;BME280;36361;38.954;-9.002;2023-05-18T00:48:27;100506.53;;;21.85;35.39
50434;BME280;36361;38.954;-9.002;2023-05-18T00:49:28;100506.09;;;21.73;35.74
50434;BME280;36361;38.954;-9.002;2023-05-18T00:50:29;100506.63;;;21.75;34.77
50434;BME280;36361;38.954;-9.002;2023-05-18T00:51:32;100503.28;;;21.78;35.01
50434;BME280;36361;38.954;-9.002;2023-05-18T00:52:33;100505.97;;;21.83;34.75
50434;BME280;36361;38.954;-9.002;2023-05-18T00:53:41;100507.94;;;21.83;34.19
50434;BME280;36361;38.954;-9.002;2023-05-18T00:54:43;100515.38;;;21.88;33.30
50434;BME280;36361;38.954;-9.002;2023-05-18T00:55:44;100512.81;;;21.91;35.27
50434;BME280;36361;38.954;-9.002;2023-05-18T00:56:49;100501.63;;;21.77;34.69
50434;BME280;36361;38.954;-9.002;2023-05-18T00:57:53;100509.94;;;21.77;33.06
50434;BME280;36361;38.954;-9.002;2023-05-18T00:58:56;100516.50;;;21.86;35.44
50434;BME280;36361;38.954;-9.002;2023-05-18T01:00:02;100497.16;;;21.81;35.68
50434;BME280;36361;38.954;-9.002;2023-05-18T01:01:04;100509.75;;;21.93;35.96
50434;BME280;36361;38.954;-9.002;2023-05-18T01:02:08;100502.00;;;21.95;34.61
50434;BME280;36361;38.954;-9.002;2023-05-18T01:03:09;100509.69;;;21.98;35.03
50434;BME280;36361;38.954;-9.002;2023-05-18T01:04:11;100507.75;;;21.98;34.32
50434;BME280;36361;38.954;-9.002;2023-05-18T01:05:16;100504.28;;;21.88;33.76
50434;BME280;36361;38.954;-9.002;2023-05-18T01:06:18;100501.75;;;21.67;32.46
50434;BME280;36361;38.954;-9.002;2023-05-18T01:07:18;100502.97;;;21.80;35.00
50434;BME280;36361;38.954;-9.002;2023-05-18T01:08:26;100500.91;;;21.67;34.12
50434;BME280;36361;38.954;-9.002;2023-05-18T01:09:27;100494.78;;;21.70;32.68
50434;BME280;36361;38.954;-9.002;2023-05-18T01:10:32;100497.22;;;21.47;35.36
50434;BME280;36361;38.954;-9.002;2023-05-18T01:11:59;100500.34;;;21.70;32.59
50434;BME280;36361;38.954;-9.002;2023-05-18T01:13:11;100500.06;;;21.66;31.39
50434;BME280;36361;38.954;-9.002;2023-05-18T01:14:40;100497.38;;;21.61;35.86
50434;BME280;36361;38.954;-9.002;2023-05-18T01:15:47;100503.41;;;21.68;35.50
50434;BME280;36361;38.954;-9.002;2023-05-18T01:17:11;100500.47;;;21.54;32.06
50434;BME280;36361;38.954;-9.002;2023-05-18T01:18:22;100505.03;;;21.69;35.03
50434;BME280;36361;38.954;-9.002;2023-05-18T01:21:22;100504.94;;;21.79;31.42
50434;BME280;36361;38.954;-9.002;2023-05-18T01:23:57;100516.59;;;21.76;35.75
50434;BME280;36361;38.954;-9.002;2023-05-18T01:25:11;100512.13;;;21.80;35.17
50434;BME280;36361;38.954;-9.002;2023-05-18T01:26:23;100511.53;;;21.83;34.85
50434;BME280;36361;38.954;-9.002;2023-05-18T01:27:30;100504.59;;;21.86;34.80
50434;BME280;36361;38.954;-9.002;2023-05-18T01:28:53;100515.88;;;21.90;34.72
50434;BME280;36361;38.954;-9.002;2023-05-18T01:29:56;100506.47;;;21.91;35.25
50434;BME280;36361;38.954;-9.002;2023-05-18T01:31:03;100504.44;;;21.14;32.83
50434;BME280;36361;38.954;-9.002;2023-05-18T01:33:20;100500.25;;;21.51;35.46
50434;BME280;36361;38.954;-9.002;2023-05-18T01:34:24;100508.94;;;21.68;35.29
50434;BME280;36361;38.954;-9.002;2023-05-18T01:35:25;100503.91;;;21.70;32.20
50434;BME280;36361;38.954;-9.002;2023-05-18T01:36:27;100510.00;;;21.43;35.59
50434;BME280;36361;38.954;-9.002;2023-05-18T01:37:28;100512.88;;;21.62;33.91
50434;BME280;36361;38.954;-9.002;2023-05-18T01:38:29;100511.16;;;21.66;32.91
50434;BME280;36361;38.954;-9.002;2023-05-18T01:39:42;100513.16;;;21.61;32.36
50434;BME280;36361;38.954;-9.002;2023-05-18T01:41:58;100511.72;;;21.68;34.95
50434;BME280;36361;38.954;-9.002;2023-05-18T01:43:10;100507.84;;;21.64;32.64
50434;BME280;36361;38.954;-9.002;2023-05-18T01:45:40;100511.44;;;21.65;33.06
50434;BME280;36361;38.954;-9.002;2023-05-18T01:47:03;100514.41;;;21.73;35.23
50434;BME280;36361;38.954;-9.002;2023-05-18T01:48:13;100507.06;;;21.88;35.50
50434;BME280;36361;38.954;-9.002;2023-05-18T01:49:34;100506.63;;;21.75;34.43
50434;BME280;36361;38.954;-9.002;2023-05-18T01:50:47;100500.75;;;21.82;33.06
50434;BME280;36361;38.954;-9.002;2023-05-18T01:51:49;100501.94;;;21.47;31.34
50434;BME280;36361;38.954;-9.002;2023-05-18T01:53:01;100499.34;;;21.55;33.66
50434;BME280;36361;38.954;-9.002;2023-05-18T01:54:09;100501.97;;;21.71;35.37
50434;BME280;36361;38.954;-9.002;2023-05-18T01:55:13;100507.22;;;21.72;33.19
50434;BME280;36361;38.954;-9.002;2023-05-18T01:56:21;100512.16;;;21.75;34.81
50434;BME280;36361;38.954;-9.002;2023-05-18T01:57:36;100511.16;;;21.66;34.10
50434;BME280;36361;38.954;-9.002;2023-05-18T01:58:42;100517.69;;;21.75;35.07
50434;BME280;36361;38.954;-9.002;2023-05-18T01:59:43;100507.75;;;21.74;33.56
50434;BME280;36361;38.954;-9.002;2023-05-18T02:00:45;100510.59;;;21.69;31.38
50434;BME280;36361;38.954;-9.002;2023-05-18T02:01:46;100508.56;;;21.75;34.87
50434;BME280;36361;38.954;-9.002;2023-05-18T02:02:49;100510.00;;;21.72;33.55
50434;BME280;36361;38.954;-9.002;2023-05-18T02:03:51;100512.16;;;21.75;34.42
50434;BME280;36361;38.954;-9.002;2023-05-18T02:04:54;100507.69;;;21.79;33.82
50434;BME280;36361;38.954;-9.002;2023-05-18T02:05:58;100509.88;;;21.82;35.22
50434;BME280;36361;38.954;-9.002;2023-05-18T02:06:59;100508.22;;;21.81;34.10
50434;BME280;36361;38.954;-9.002;2023-05-18T02:08:00;100512.22;;;21.70;32.81
50434;BME280;36361;38.954;-9.002;2023-05-18T02:09:09;100513.28;;;21.74;34.66
50434;BME280;36361;38.954;-9.002;2023-05-18T02:10:10;100510.81;;;21.73;34.09
50434;BME280;36361;38.954;-9.002;2023-05-18T02:11:12;100512.97;;;21.76;33.07
50434;BME280;36361;38.954;-9.002;2023-05-18T02:12:14;100516.66;;;21.71;34.48
50434;BME280;36361;38.954;-9.002;2023-05-18T02:13:15;100507.63;;;21.61;30.67
50434;BME280;36361;38.954;-9.002;2023-05-18T02:14:19;100515.03;;;21.65;33.94
50434;BME280;36361;38.954;-9.002;2023-05-18T02:15:21;100522.28;;;21.61;31.77
50434;BME280;36361;38.954;-9.002;2023-05-18T02:16:22;100520.06;;;21.63;31.73
50434;BME280;36361;38.954;-9.002;2023-05-18T02:17:27;100517.63;;;21.56;30.94
50434;BME280;36361;38.954;-9.002;2023-05-18T02:18:31;100509.69;;;21.50;30.92
50434;BME280;36361;38.954;-9.002;2023-05-18T02:19:39;100514.66;;;21.48;33.08
50434;BME280;36361;38.954;-9.002;2023-05-18T02:20:40;100524.66;;;21.49;33.99
50434;BME280;36361;38.954;-9.002;2023-05-18T02:21:41;100512.28;;;21.65;35.11
50434;BME280;36361;38.954;-9.002;2023-05-18T02:22:43;100519.28;;;21.57;33.64
50434;BME280;36361;38.954;-9.002;2023-05-18T02:23:45;100522.44;;;21.46;31.74
50434;BME280;36361;38.954;-9.002;2023-05-18T02:24:48;100522.22;;;21.42;34.69
50434;BME280;36361;38.954;-9.002;2023-05-18T02:25:49;100523.38;;;21.36;33.97
50434;BME280;36361;38.954;-9.002;2023-05-18T02:26:50;100526.94;;;21.37;33.17
50434;BME280;36361;38.954;-9.002;2023-05-18T02:27:55;100519.75;;;21.41;33.04
50434;BME280;36361;38.954;-9.002;2023-05-18T02:28:56;100531.56;;;21.46;33.89
50434;BME280;36361;38.954;-9.002;2023-05-18T02:29:57;100524.16;;;21.42;33.58
50434;BME280;36361;38.954;-9.002;2023-05-18T02:31:09;100517.66;;;21.22;32.18
50434;BME280;36361;38.954;-9.002;2023-05-18T02:32:11;100528.72;;;21.22;31.88
50434;BME280;36361;38.954;-9.002;2023-05-18T02:33:12;100523.69;;;21.29;34.74
50434;BME280;36361;38.954;-9.002;2023-05-18T02:34:13;100521.38;;;21.42;33.83
50434;BME280;36361;38.954;-9.002;2023-05-18T02:35:23;100520.84;;;21.40;32.46
50434;BME280;36361;38.954;-9.002;2023-05-18T02:36:27;100511.78;;;21.29;31.98
50434;BME280;36361;38.954;-9.002;2023-05-18T02:37:43;100523.13;;;21.33;34.56
50434;BME280;36361;38.954;-9.002;2023-05-18T02:38:44;100528.41;;;20.90;31.25
50434;BME280;36361;38.954;-9.002;2023-05-18T02:39:45;100531.94;;;20.56;31.32
50434;BME280;36361;38.954;-9.002;2023-05-18T02:40:47;100528.25;;;20.76;31.21
50434;BME280;36361;38.954;-9.002;2023-05-18T02:41:56;100526.03;;;20.73;33.22
50434;BME280;36361;38.954;-9.002;2023-05-18T02:42:57;100526.78;;;20.84;33.51
50434;BME280;36361;38.954;-9.002;2023-05-18T02:44:07;100518.91;;;21.06;36.00
50434;BME280;36361;38.954;-9.002;2023-05-18T02:45:08;100513.84;;;21.13;33.47
50434;BME280;36361;38.954;-9.002;2023-05-18T02:46:10;100523.81;;;21.14;32.99
50434;BME280;36361;38.954;-9.002;2023-05-18T02:47:11;100523.19;;;21.22;33.54
50434;BME280;36361;38.954;-9.002;2023-05-18T02:48:12;100529.28;;;21.19;30.60
50434;BME280;36361;38.954;-9.002;2023-05-18T02:49:13;100522.63;;;21.20;31.06
50434;BME280;36361;38.954;-9.002;2023-05-18T02:50:16;100520.25;;;21.09;31.95
50434;BME280;36361;38.954;-9.002;2023-05-18T02:51:18;100527.13;;;21.11;31.33
50434;BME280;36361;38.954;-9.002;2023-05-18T02:52:21;100528.53;;;21.14;34.59
50434;BME280;36361;38.954;-9.002;2023-05-18T02:53:29;100524.88;;;21.18;32.78
50434;BME280;36361;38.954;-9.002;2023-05-18T02:54:36;100534.91;;;21.09;32.22
50434;BME280;36361;38.954;-9.002;2023-05-18T02:55:53;100522.09;;;21.18;30.81
50434;BME280;36361;38.954;-9.002;2023-05-18T02:57:02;100528.41;;;20.95;30.95
50434;BME280;36361;38.954;-9.002;2023-05-18T02:58:18;100525.06;;;20.93;31.68
50434;BME280;36361;38.954;-9.002;2023-05-18T03:00:13;100536.91;;;21.04;32.27
50434;BME280;36361;38.954;-9.002;2023-05-18T03:01:19;100534.97;;;21.04;34.62
50434;BME280;36361;38.954;-9.002;2023-05-18T03:02:24;100531.19;;;21.24;34.05
50434;BME280;36361;38.954;-9.002;2023-05-18T03:03:27;100524.25;;;21.32;30.31
50434;BME280;36361;38.954;-9.002;2023-05-18T03:04:28;100526.19;;;21.26;30.22
50434;BME280;36361;38.954;-9.002;2023-05-18T03:05:30;100535.13;;;21.18;30.24
50434;BME280;36361;38.954;-9.002;2023-05-18T03:06:32;100530.53;;;21.03;30.27
50434;BME280;36361;38.954;-9.002;2023-05-18T03:07:32;100534.38;;;21.07;33.67
50434;BME280;36361;38.954;-9.002;2023-05-18T03:08:35;100531.03;;;21.10;33.45
50434;BME280;36361;38.954;-9.002;2023-05-18T03:09:43;100531.72;;;21.26;35.41
50434;BME280;36361;38.954;-9.002;2023-05-18T03:10:43;100530.94;;;21.20;34.10
50434;BME280;36361;38.954;-9.002;2023-05-18T03:11:45;100526.56;;;21.14;31.86
50434;BME280;36361;38.954;-9.002;2023-05-18T03:12:46;100533.66;;;21.25;34.15
50434;BME280;36361;38.954;-9.002;2023-05-18T03:13:48;100526.56;;;21.14;31.83
50434;BME280;36361;38.954;-9.002;2023-05-18T03:14:49;100546.47;;;21.16;29.89
50434;BME280;36361;38.954;-9.002;2023-05-18T03:15:50;100541.63;;;21.03;30.16
50434;BME280;36361;38.954;-9.002;2023-05-18T03:16:53;100543.91;;;20.91;30.88
50434;BME280;36361;38.954;-9.002;2023-05-18T03:18:16;100537.22;;;20.97;32.70
50434;BME280;36361;38.954;-9.002;2023-05-18T03:19:19;100551.28;;;21.00;30.22
50434;BME280;36361;38.954;-9.002;2023-05-18T03:20:20;100551.50;;;21.09;29.74
50434;BME280;36361;38.954;-9.002;2023-05-18T03:21:22;100547.09;;;21.08;29.51
50434;BME280;36361;38.954;-9.002;2023-05-18T03:22:32;100550.44;;;20.61;30.55
50434;BME280;36361;38.954;-9.002;2023-05-18T03:23:34;100559.38;;;20.42;30.50
50434;BME280;36361;38.954;-9.002;2023-05-18T03:24:35;100551.47;;;20.75;31.38
50434;BME280;36361;38.954;-9.002;2023-05-18T03:25:52;100555.56;;;20.83;30.25
50434;BME280;36361;38.954;-9.002;2023-05-18T03:26:57;100559.44;;;20.82;30.07
50434;BME280;36361;38.954;-9.002;2023-05-18T03:28:04;100560.50;;;20.91;30.10
50434;BME280;36361;38.954;-9.002;2023-05-18T03:29:05;100560.25;;;20.87;29.91
50434;BME280;36361;38.954;-9.002;2023-05-18T03:30:12;100562.72;;;20.89;31.88
50434;BME280;36361;38.954;-9.002;2023-05-18T03:31:16;100558.91;;;20.80;31.48
50434;BME280;36361;38.954;-9.002;2023-05-18T03:32:20;100562.22;;;20.82;30.12
50434;BME280;36361;38.954;-9.002;2023-05-18T03:33:21;100551.72;;;20.79;30.26
50434;BME280;36361;38.954;-9.002;2023-05-18T03:34:22;100556.16;;;20.80;29.95
50434;BME280;36361;38.954;-9.002;2023-05-18T03:35:29;100559.13;;;20.29;32.11
50434;BME280;36361;38.954;-9.002;2023-05-18T03:36:30;100558.06;;;20.25;32.88
50434;BME280;36361;38.954;-9.002;2023-05-18T03:37:31;100564.13;;;20.32;30.79
50434;BME280;36361;38.954;-9.002;2023-05-18T03:38:32;100561.03;;;20.49;31.52
50434;BME280;36361;38.954;-9.002;2023-05-18T03:39:38;100559.63;;;20.46;30.23
50434;BME280;36361;38.954;-9.002;2023-05-18T03:40:40;100554.63;;;20.53;30.26
50434;BME280;36361;38.954;-9.002;2023-05-18T03:41:42;100558.50;;;20.52;30.93
50434;BME280;36361;38.954;-9.002;2023-05-18T03:42:43;100552.09;;;20.62;29.91
50434;BME280;36361;38.954;-9.002;2023-05-18T03:43:44;100563.41;;;20.65;29.76
50434;BME280;36361;38.954;-9.002;2023-05-18T03:44:46;100561.97;;;20.78;29.31
50434;BME280;36361;38.954;-9.002;2023-05-18T03:45:53;100565.91;;;20.67;29.62
50434;BME280;36361;38.954;-9.002;2023-05-18T03:46:54;100566.84;;;20.42;29.58
50434;BME280;36361;38.954;-9.002;2023-05-18T03:48:07;100557.97;;;20.50;30.04
50434;BME280;36361;38.954;-9.002;2023-05-18T03:49:08;100572.44;;;20.16;31.34
50434;BME280;36361;38.954;-9.002;2023-05-18T03:50:13;100574.34;;;20.31;29.94
50434;BME280;36361;38.954;-9.002;2023-05-18T03:51:15;100565.03;;;20.12;30.14
50434;BME280;36361;38.954;-9.002;2023-05-18T03:52:16;100566.31;;;20.30;30.98
50434;BME280;36361;38.954;-9.002;2023-05-18T03:53:24;100568.03;;;20.15;30.03
50434;BME280;36361;38.954;-9.002;2023-05-18T03:54:25;100569.13;;;20.25;29.84
50434;BME280;36361;38.954;-9.002;2023-05-18T03:55:26;100578.47;;;20.34;29.89
50434;BME280;36361;38.954;-9.002;2023-05-18T03:56:29;100580.13;;;20.40;29.67
50434;BME280;36361;38.954;-9.002;2023-05-18T03:57:31;100582.03;;;20.44;29.74
50434;BME280;36361;38.954;-9.002;2023-05-18T03:58:34;100579.00;;;20.41;29.64
50434;BME280;36361;38.954;-9.002;2023-05-18T03:59:35;100579.06;;;20.26;30.45
50434;BME280;36361;38.954;-9.002;2023-05-18T04:00:36;100578.56;;;20.08;30.49
50434;BME280;36361;38.954;-9.002;2023-05-18T04:01:40;100581.34;;;20.03;30.78
50434;BME280;36361;38.954;-9.002;2023-05-18T04:02:42;100575.22;;;20.11;30.43
50434;BME280;36361;38.954;-9.002;2023-05-18T04:03:43;100583.47;;;20.27;33.99
50434;BME280;36361;38.954;-9.002;2023-05-18T04:04:47;100580.81;;;19.91;30.50
50434;BME280;36361;38.954;-9.002;2023-05-18T04:05:52;100587.97;;;19.97;34.44
50434;BME280;36361;38.954;-9.002;2023-05-18T04:06:53;100581.31;;;20.13;31.73
50434;BME280;36361;38.954;-9.002;2023-05-18T04:07:53;100584.59;;;20.21;30.23
50434;BME280;36361;38.954;-9.002;2023-05-18T04:08:56;100583.13;;;20.38;29.64
50434;BME280;36361;38.954;-9.002;2023-05-18T04:10:02;100580.16;;;20.25;29.57
50434;BME280;36361;38.954;-9.002;2023-05-18T04:11:02;100585.66;;;20.35;29.37
50434;BME280;36361;38.954;-9.002;2023-05-18T04:12:07;100588.47;;;20.20;29.65
50434;BME280;36361;38.954;-9.002;2023-05-18T04:13:08;100590.44;;;20.14;29.71
50434;BME280;36361;38.954;-9.002;2023-05-18T04:14:16;100597.84;;;20.18;29.88
50434;BME280;36361;38.954;-9.002;2023-05-18T04:15:18;100593.22;;;20.04;29.90
50434;BME280;36361;38.954;-9.002;2023-05-18T04:16:19;100592.94;;;20.05;29.81
50434;BME280;36361;38.954;-9.002;2023-05-18T04:17:21;100594.03;;;20.14;30.51
50434;BME280;36361;38.954;-9.002;2023-05-18T04:18:22;100591.28;;;20.04;31.47
50434;BME280;36361;38.954;-9.002;2023-05-18T04:19:23;100594.06;;;20.04;30.87
50434;BME280;36361;38.954;-9.002;2023-05-18T04:20:24;100592.66;;;20.12;30.06
50434;BME280;36361;38.954;-9.002;2023-05-18T04:21:28;100597.34;;;20.01;30.13
50434;BME280;36361;38.954;-9.002;2023-05-18T04:22:39;100596.28;;;19.87;30.36
50434;BME280;36361;38.954;-9.002;2023-05-18T04:23:42;100593.00;;;19.85;30.63
50434;BME280;36361;38.954;-9.002;2023-05-18T04:24:44;100595.16;;;19.93;30.52
50434;BME280;36361;38.954;-9.002;2023-05-18T04:25:46;100605.13;;;19.79;30.50
50434;BME280;36361;38.954;-9.002;2023-05-18T04:26:49;100596.84;;;19.74;30.69
50434;BME280;36361;38.954;-9.002;2023-05-18T04:27:51;100603.75;;;19.81;30.65
50434;BME280;36361;38.954;-9.002;2023-05-18T04:29:04;100605.69;;;19.71;30.61
50434;BME280;36361;38.954;-9.002;2023-05-18T04:30:08;100600.19;;;19.76;30.94
50434;BME280;36361;38.954;-9.002;2023-05-18T04:31:13;100603.47;;;19.73;30.68
50434;BME280;36361;38.954;-9.002;2023-05-18T04:32:14;100601.25;;;19.75;30.86
50434;BME280;36361;38.954;-9.002;2023-05-18T04:33:18;100605.72;;;19.76;31.38
50434;BME280;36361;38.954;-9.002;2023-05-18T04:34:20;100604.88;;;19.75;31.15
50434;BME280;36361;38.954;-9.002;2023-05-18T04:35:23;100606.22;;;19.83;32.13
50434;BME280;36361;38.954;-9.002;2023-05-18T04:36:28;100605.13;;;19.89;30.42
50434;BME280;36361;38.954;-9.002;2023-05-18T04:37:31;100607.59;;;19.91;30.23
50434;BME280;36361;38.954;-9.002;2023-05-18T04:38:36;100607.91;;;19.79;30.88
50434;BME280;36361;38.954;-9.002;2023-05-18T04:39:38;100611.75;;;19.83;30.35
50434;BME280;36361;38.954;-9.002;2023-05-18T04:40:43;100610.38;;;19.85;30.56
50434;BME280;36361;38.954;-9.002;2023-05-18T04:41:46;100622.81;;;19.73;30.42
50434;BME280;36361;38.954;-9.002;2023-05-18T04:42:48;100617.28;;;19.73;30.40
50434;BME280;36361;38.954;-9.002;2023-05-18T04:43:58;100617.31;;;19.63;30.38
50434;BME280;36361;38.954;-9.002;2023-05-18T04:45:00;100615.66;;;19.77;34.54
50434;BME280;36361;38.954;-9.002;2023-05-18T04:46:05;100621.72;;;19.79;30.62
50434;BME280;36361;38.954;-9.002;2023-05-18T04:47:08;100617.28;;;19.52;30.66
50434;BME280;36361;38.954;-9.002;2023-05-18T04:48:09;100621.16;;;19.62;31.51
50434;BME280;36361;38.954;-9.002;2023-05-18T04:49:11;100622.81;;;19.63;31.10
50434;BME280;36361;38.954;-9.002;2023-05-18T04:50:13;100624.22;;;19.60;34.37
50434;BME280;36361;38.954;-9.002;2023-05-18T04:51:17;100624.50;;;19.58;30.96
50434;BME280;36361;38.954;-9.002;2023-05-18T04:52:21;100623.34;;;19.34;30.89
50434;BME280;36361;38.954;-9.002;2023-05-18T04:53:25;100626.06;;;19.19;30.99
50434;BME280;36361;38.954;-9.002;2023-05-18T04:54:30;100629.13;;;19.43;31.70
50434;BME280;36361;38.954;-9.002;2023-05-18T04:55:31;100628.28;;;19.27;31.61
50434;BME280;36361;38.954;-9.002;2023-05-18T04:56:43;100628.84;;;19.29;31.08
50434;BME280;36361;38.954;-9.002;2023-05-18T04:57:48;100633.84;;;19.32;30.88
50434;BME280;36361;38.954;-9.002;2023-05-18T04:58:48;100632.72;;;19.43;30.71
50434;BME280;36361;38.954;-9.002;2023-05-18T04:59:51;100638.25;;;19.33;31.09
50434;BME280;36361;38.954;-9.002;2023-05-18T05:01:01;100638.72;;;18.94;31.78
50434;BME280;36361;38.954;-9.002;2023-05-18T05:02:02;100647.47;;;18.66;31.76
50434;BME280;36361;38.954;-9.002;2023-05-18T05:03:04;100645.88;;;18.85;31.34
50434;BME280;36361;38.954;-9.002;2023-05-18T05:04:05;100644.28;;;19.04;31.02
50434;BME280;36361;38.954;-9.002;2023-05-18T05:05:07;100639.84;;;18.98;31.28
50434;BME280;36361;38.954;-9.002;2023-05-18T05:06:09;100644.25;;;18.94;31.43
50434;BME280;36361;38.954;-9.002;2023-05-18T05:07:10;100635.28;;;18.57;31.68
50434;BME280;36361;38.954;-9.002;2023-05-18T05:08:10;100647.81;;;18.37;32.16
50434;BME280;36361;38.954;-9.002;2023-05-18T05:09:19;100654.13;;;18.80;31.50
50434;BME280;36361;38.954;-9.002;2023-05-18T05:10:21;100654.69;;;18.87;31.49
50434;BME280;36361;38.954;-9.002;2023-05-18T05:11:22;100646.41;;;18.82;31.58
50434;BME280;36361;38.954;-9.002;2023-05-18T05:12:23;100649.22;;;18.97;32.53
50434;BME280;36361;38.954;-9.002;2023-05-18T05:13:25;100653.63;;;18.93;31.34
50434;BME280;36361;38.954;-9.002;2023-05-18T05:14:26;100649.53;;;18.43;31.76
50434;BME280;36361;38.954;-9.002;2023-05-18T05:15:39;100649.31;;;18.03;32.35
50434;BME280;36361;38.954;-9.002;2023-05-18T05:18:02;100661.81;;;18.68;31.45
50434;BME280;36361;38.954;-9.002;2023-05-18T05:19:09;100650.13;;;18.56;31.80
50434;BME280;36361;38.954;-9.002;2023-05-18T05:20:10;100654.66;;;18.82;33.04
50434;BME280;36361;38.954;-9.002;2023-05-18T05:21:11;100660.47;;;18.81;31.82
50434;BME280;36361;38.954;-9.002;2023-05-18T05:22:12;100665.47;;;18.99;30.89
50434;BME280;36361;38.954;-9.002;2023-05-18T05:23:14;100663.75;;;18.78;31.02
50434;BME280;36361;38.954;-9.002;2023-05-18T05:24:16;100659.44;;;18.44;32.54
50434;BME280;36361;38.954;-9.002;2023-05-18T05:25:17;100662.16;;;18.34;31.66
50434;BME280;36361;38.954;-9.002;2023-05-18T05:26:19;100661.25;;;18.66;32.04
50434;BME280;36361;38.954;-9.002;2023-05-18T05:27:21;100668.16;;;18.21;31.64
50434;BME280;36361;38.954;-9.002;2023-05-18T05:28:23;100665.13;;;18.28;31.59
50434;BME280;36361;38.954;-9.002;2023-05-18T05:29:24;100668.09;;;18.11;32.07
50434;BME280;36361;38.954;-9.002;2023-05-18T05:30:26;100675.91;;;18.29;31.59
50434;BME280;36361;38.954;-9.002;2023-05-18T05:31:27;100669.25;;;18.20;32.43
50434;BME280;36361;38.954;-9.002;2023-05-18T05:32:28;100671.28;;;18.40;31.68
50434;BME280;36361;38.954;-9.002;2023-05-18T05:33:29;100672.56;;;18.22;31.61
50434;BME280;36361;38.954;-9.002;2023-05-18T05:34:30;100672.56;;;17.85;31.58
50434;BME280;36361;38.954;-9.002;2023-05-18T05:35:31;100673.88;;;17.77;32.81
50434;BME280;36361;38.954;-9.002;2023-05-18T05:36:32;100681.34;;;18.19;31.23
50434;BME280;36361;38.954;-9.002;2023-05-18T05:37:33;100678.78;;;18.50;32.50
50434;BME280;36361;38.954;-9.002;2023-05-18T05:38:34;100672.72;;;18.53;31.60
50434;BME280;36361;38.954;-9.002;2023-05-18T05:39:36;100681.56;;;18.60;30.60